Time;durP1;ratioP1;P1;durP2;ratioP2;P2;SDS_P1;SDS_P2;PMS_P1;PMS_P2;Temp;Humidity;BMP_temperature;BMP_pressure;BME280_temperature;BME280_humidity;BME280_pressure;Samples;Min_cycle;Max_cycle;Signal;HPM_P1;HPM_P2
2022/11/16 00:01:22;;;;;;;4.18;2.13;;;11.90;95.70;;;;;;4975830;28;20055;-82
2022/11/16 00:03:51;;;;;;;3.95;2.22;;;11.90;95.70;;;;;;4960008;28;20043;-81
2022/11/16 00:06:20;;;;;;;5.20;2.75;;;11.90;95.70;;;;;;4960230;28;20054;-81
2022/11/16 00:11:37;;;;;;;3.75;2.33;;;11.90;95.70;;;;;;4979472;28;20064;-81
2022/11/16 00:14:05;;;;;;;3.75;2.13;;;12.00;95.80;;;;;;4960257;28;20122;-82
2022/11/16 00:16:33;;;;;;;3.67;2.22;;;11.90;95.80;;;;;;4938910;29;20047;-82
2022/11/16 00:19:02;;;;;;;5.68;2.30;;;12.00;95.80;;;;;;4959488;28;20047;-82
2022/11/16 00:21:30;;;;;;;3.97;1.77;;;12.00;95.80;;;;;;4974153;28;20160;-82
2022/11/16 00:23:57;;;;;;;3.80;2.33;;;12.00;95.80;;;;;;4960238;28;20133;-80
2022/11/16 00:26:25;;;;;;;4.50;2.28;;;12.00;95.80;;;;;;4960111;28;20070;-82
2022/11/16 00:28:53;;;;;;;3.83;1.98;;;12.00;95.80;;;;;;4959660;28;20050;-82
2022/11/16 00:31:21;;;;;;;4.18;2.30;;;12.00;95.80;;;;;;4943456;28;20047;-82
2022/11/16 00:33:49;;;;;;;4.53;2.22;;;12.00;95.80;;;;;;4959747;28;20131;-82
2022/11/16 00:36:16;;;;;;;5.32;2.25;;;12.00;95.80;;;;;;4959717;28;20043;-81
2022/11/16 00:38:46;;;;;;;4.13;2.65;;;12.00;95.80;;;;;;4946746;28;20046;-82
2022/11/16 00:41:13;;;;;;;4.75;2.63;;;12.00;95.90;;;;;;4959711;28;20134;-82
2022/11/16 00:43:40;;;;;;;4.03;2.20;;;12.00;95.90;;;;;;4943606;28;20503;-82
2022/11/16 00:46:08;;;;;;;6.20;3.75;;;12.00;95.90;;;;;;4958291;28;20043;-82
2022/11/16 00:48:35;;;;;;;5.22;2.95;;;12.00;95.90;;;;;;4959160;28;20388;-81
2022/11/16 00:51:03;;;;;;;4.72;2.53;;;12.00;95.90;;;;;;4943826;28;20074;-81
2022/11/16 00:53:31;;;;;;;6.68;2.60;;;12.00;95.90;;;;;;4985981;28;20054;-81
2022/11/16 00:55:58;;;;;;;4.25;2.75;;;12.00;95.90;;;;;;4959339;28;20127;-81
2022/11/16 00:58:29;;;;;;;5.18;2.75;;;12.00;95.90;;;;;;4959579;28;20078;-82
2022/11/16 01:01:06;;;;;;;5.28;2.95;;;12.00;95.90;;;;;;4960242;28;20097;-82
2022/11/16 01:03:34;;;;;;;5.55;2.90;;;12.00;95.90;;;;;;4943299;28;20134;-82
2022/11/16 01:06:03;;;;;;;5.00;2.92;;;12.00;95.90;;;;;;4974883;28;20110;-82
2022/11/16 01:08:31;;;;;;;4.63;3.50;;;12.00;96.20;;;;;;4959353;28;20035;-82
2022/11/16 01:12:07;;;;;;;4.43;2.58;;;12.00;96.00;;;;;;4959309;28;20122;-82
2022/11/16 01:13:47;;;;;;;4.80;2.60;;;12.00;96.00;;;;;;4974824;28;20050;-82
2022/11/16 01:16:15;;;;;;;6.57;3.85;;;12.00;96.00;;;;;;4974564;28;20782;-85
2022/11/16 01:18:46;;;;;;;5.45;3.38;;;12.00;96.00;;;;;;4928396;28;20067;-85
2022/11/16 01:21:13;;;;;;;6.20;3.58;;;12.00;96.00;;;;;;4983174;28;20154;-84
2022/11/16 01:23:40;;;;;;;6.53;3.45;;;12.00;96.00;;;;;;4969271;28;20064;-85
2022/11/16 01:26:07;;;;;;;4.95;3.08;;;12.00;96.10;;;;;;4965253;28;20050;-86
2022/11/16 01:28:36;;;;;;;5.65;3.33;;;12.00;96.10;;;;;;4944003;28;20049;-86
2022/11/16 01:31:05;;;;;;;4.88;2.83;;;11.90;96.10;;;;;;4959710;28;20043;-85
2022/11/16 01:33:35;;;;;;;4.28;2.30;;;12.00;96.10;;;;;;4943848;28;20043;-85
2022/11/16 01:36:07;;;;;;;5.63;2.70;;;12.00;96.10;;;;;;4943319;28;20050;-85
2022/11/16 01:38:34;;;;;;;5.03;2.83;;;12.00;96.10;;;;;;4944385;28;20039;-84
2022/11/16 01:41:02;;;;;;;8.30;4.60;;;12.00;96.10;;;;;;4912263;28;20043;-86
2022/11/16 01:44:11;;;;;;;7.78;4.53;;;12.00;96.10;;;;;;4943376;28;20066;-86
2022/11/16 01:46:47;;;;;;;7.40;3.97;;;12.00;96.10;;;;;;4937312;28;20046;-85
2022/11/16 01:49:19;;;;;;;5.05;3.00;;;11.90;96.10;;;;;;4944180;28;20065;-85
2022/11/16 01:51:52;;;;;;;5.00;3.03;;;11.90;96.20;;;;;;4943519;28;20101;-85
2022/11/16 01:54:20;;;;;;;5.30;3.50;;;11.90;96.20;;;;;;4958755;28;20045;-85
2022/11/16 01:57:01;;;;;;;4.72;2.85;;;11.90;96.20;;;;;;4949016;28;20039;-84
2022/11/16 01:59:51;;;;;;;6.30;3.75;;;11.90;96.30;;;;;;4949600;28;20057;-85
2022/11/16 02:02:21;;;;;;;6.65;3.60;;;11.80;96.30;;;;;;4958918;28;20093;-84
2022/11/16 02:04:51;;;;;;;5.00;3.38;;;11.80;96.30;;;;;;4943097;28;20045;-85
2022/11/16 02:10:49;;;;;;;4.88;2.75;;;11.90;96.40;;;;;;4919505;28;20047;-85
2022/11/16 02:13:53;;;;;;;3.65;2.17;;;11.80;96.40;;;;;;4945455;28;20102;-84
2022/11/16 02:16:56;;;;;;;4.30;2.50;;;11.80;96.40;;;;;;4956338;28;20047;-85
2022/11/16 02:19:33;;;;;;;4.80;2.38;;;11.80;96.40;;;;;;4965927;28;20101;-85
2022/11/16 02:22:32;;;;;;;4.07;2.13;;;11.80;96.40;;;;;;4975544;28;20458;-84
2022/11/16 02:25:27;;;;;;;2.88;1.52;;;11.90;96.40;;;;;;4959203;28;20137;-85
2022/11/16 02:28:21;;;;;;;4.20;2.35;;;11.90;96.40;;;;;;4988878;28;20038;-85
2022/11/16 02:30:52;;;;;;;3.63;1.88;;;11.90;96.40;;;;;;4984034;28;20049;-85
2022/11/16 02:33:24;;;;;;;4.47;2.15;;;11.90;96.50;;;;;;4963792;28;20498;-84
2022/11/16 02:35:56;;;;;;;2.75;1.48;;;11.90;96.50;;;;;;4977394;28;20038;-85
2022/11/16 02:38:28;;;;;;;3.30;1.67;;;11.80;96.50;;;;;;4977210;28;20046;-85
2022/11/16 02:40:57;;;;;;;;;;;11.90;96.50;;;;;;4951876;28;20047;-84
2022/11/16 02:43:48;;;;;;;3.33;1.48;;;11.80;96.50;;;;;;4973959;28;19949;-85
2022/11/16 02:46:25;;;;;;;4.65;1.88;;;11.80;96.50;;;;;;4961119;28;20112;-85
2022/11/16 02:48:57;;;;;;;3.70;1.67;;;11.80;96.50;;;;;;4980305;28;20129;-85
2022/11/16 02:51:29;;;;;;;3.10;1.42;;;11.80;96.50;;;;;;4984698;28;20578;-85
2022/11/16 02:54:08;;;;;;;3.95;1.83;;;11.80;96.60;;;;;;4961210;28;20057;-83
2022/11/16 02:57:03;;;;;;;3.28;2.05;;;11.80;96.60;;;;;;4976571;28;20049;-85
2022/11/16 02:59:46;;;;;;;2.92;1.40;;;11.80;96.60;;;;;;4944151;28;20046;-84
2022/11/16 03:02:49;;;;;;;2.80;1.35;;;11.80;96.60;;;;;;4968600;28;20045;-85
2022/11/16 03:05:39;;;;;;;2.13;1.05;;;11.80;96.60;;;;;;4936552;28;20378;-85
2022/11/16 03:08:14;;;;;;;2.78;1.52;;;11.80;96.60;;;;;;4962545;28;20050;-85
2022/11/16 03:13:34;;;;;;;3.80;1.75;;;11.80;96.60;;;;;;4981583;28;20057;-84
2022/11/16 03:16:08;;;;;;;3.20;1.77;;;11.80;96.60;;;;;;4962442;28;20038;-84
2022/11/16 03:18:38;;;;;;;3.30;1.60;;;11.80;96.60;;;;;;4960613;28;20053;-85
2022/11/16 03:21:15;;;;;;;5.55;2.38;;;11.80;96.60;;;;;;4976580;28;20048;-84
2022/11/16 03:23:44;;;;;;;3.25;1.60;;;11.80;96.60;;;;;;4976265;28;20047;-84
2022/11/16 03:26:19;;;;;;;3.95;1.95;;;11.80;96.60;;;;;;4960532;28;20507;-84
2022/11/16 03:29:13;;;;;;;3.45;1.83;;;11.80;96.60;;;;;;4976555;28;20043;-85
2022/11/16 03:31:58;;;;;;;3.38;1.55;;;11.90;96.60;;;;;;4976053;28;20050;-85
2022/11/16 03:34:30;;;;;;;3.60;1.83;;;11.90;96.60;;;;;;4960507;28;20047;-85
2022/11/16 03:36:59;;;;;;;3.83;1.97;;;11.90;96.70;;;;;;4976626;28;20046;-85
2022/11/16 03:39:32;;;;;;;3.38;1.90;;;11.90;96.60;;;;;;4960502;28;20070;-85
2022/11/16 03:42:04;;;;;;;3.85;2.10;;;11.90;96.60;;;;;;4976290;28;20429;-84
2022/11/16 03:44:37;;;;;;;7.20;2.83;;;11.90;96.60;;;;;;4961203;28;20129;-85
2022/11/16 03:47:08;;;;;;;3.65;1.85;;;11.90;96.90;;;;;;4960632;28;20050;-84
2022/11/16 03:49:35;;;;;;;3.72;2.15;;;11.90;96.70;;;;;;4976877;28;20042;-85
2022/11/16 03:52:03;;;;;;;3.28;1.70;;;11.90;96.70;;;;;;4976117;28;20096;-84
2022/11/16 03:54:32;;;;;;;3.80;2.28;;;11.90;96.70;;;;;;4960531;28;20046;-85
2022/11/16 03:57:00;;;;;;;3.80;1.75;;;11.90;96.70;;;;;;4976409;28;20038;-85
2022/11/16 03:59:30;;;;;;;4.35;2.13;;;11.90;96.70;;;;;;4945322;28;20053;-85
2022/11/16 04:01:58;;;;;;;4.25;2.30;;;11.90;96.70;;;;;;4991901;28;20435;-86
2022/11/16 04:24:23;;;;;;;4.60;2.25;;;11.90;96.70;;;;;;4960109;28;20034;-85
2022/11/16 04:29:56;;;;;;;2.90;1.40;;;12.00;96.70;;;;;;4962533;28;20051;-82
2022/11/16 04:38:15;;;;;;;2.92;1.70;;;12.00;96.80;;;;;;4949616;28;20516;-82
2022/11/16 04:47:51;;;;;;;2.70;1.67;;;11.90;96.80;;;;;;4910250;29;20052;-82
2022/11/16 04:50:42;;;;;;;3.65;1.25;;;11.90;96.80;;;;;;4823629;29;20134;-82
2022/11/16 04:57:35;;;;;;;5.60;3.28;;;11.90;96.90;;;;;;4820207;29;20559;-82
2022/11/16 05:00:09;;;;;;;5.05;3.03;;;11.90;96.90;;;;;;4821686;29;20051;-83
2022/11/16 05:02:43;;;;;;;4.85;3.10;;;11.80;97.10;;;;;;4836432;29;20126;-82
2022/11/16 05:05:23;;;;;;;3.15;1.95;;;11.80;96.90;;;;;;4826728;29;20042;-83
2022/11/16 05:07:58;;;;;;;4.03;2.35;;;11.70;96.90;;;;;;4830892;29;20163;-82
2022/11/16 05:10:35;;;;;;;3.40;2.10;;;11.70;97.00;;;;;;4846181;29;20053;-82
2022/11/16 05:13:09;;;;;;;2.95;1.83;;;11.70;97.00;;;;;;4897093;29;20127;-83
2022/11/16 05:15:46;;;;;;;2.83;1.40;;;11.60;97.00;;;;;;4880525;29;20050;-82
2022/11/16 05:18:26;;;;;;;2.75;1.50;;;11.60;97.00;;;;;;4869584;29;20049;-82
2022/11/16 05:21:00;;;;;;;3.00;1.20;;;11.50;97.20;;;;;;4881899;29;20072;-83
2022/11/16 05:26:45;;;;;;;2.20;0.93;;;11.40;97.10;;;;;;4869796;29;20172;-83
2022/11/16 05:29:26;;;;;;;3.85;1.10;;;11.30;97.10;;;;;;4952154;28;20061;-84
2022/11/16 05:31:58;;;;;;;1.90;1.05;;;11.30;97.20;;;;;;4973577;28;20138;-83
2022/11/16 05:34:36;;;;;;;1.95;0.70;;;11.30;97.20;;;;;;4951713;28;20097;-83
2022/11/16 05:37:14;;;;;;;1.33;0.70;;;11.20;97.20;;;;;;4948318;28;20146;-83
2022/11/16 05:39:53;;;;;;;2.65;0.60;;;11.20;97.20;;;;;;4939347;28;20039;-84
2022/11/16 05:42:33;;;;;;;1.00;0.50;;;11.20;97.30;;;;;;4975433;28;20039;-83
2022/11/16 05:45:08;;;;;;;1.45;0.65;;;11.20;97.30;;;;;;4927025;28;20054;-84
2022/11/16 05:47:41;;;;;;;3.30;0.80;;;11.20;97.30;;;;;;4942571;28;20562;-83
2022/11/16 05:50:20;;;;;;;1.27;0.50;;;11.20;97.30;;;;;;4944051;28;20073;-83
2022/11/16 05:53:01;;;;;;;;;;;11.20;97.30;;;;;;4917295;28;20050;-83
2022/11/16 05:55:37;;;;;;;1.27;0.45;;;11.20;97.30;;;;;;4959288;28;19945;-83
2022/11/16 05:58:11;;;;;;;1.70;0.55;;;11.20;97.30;;;;;;4942488;28;20524;-81
2022/11/16 06:00:48;;;;;;;0.88;0.40;;;11.20;97.20;;;;;;4974475;28;20057;-83
2022/11/16 06:03:31;;;;;;;1.45;0.85;;;11.30;97.20;;;;;;4958026;28;20514;-83
2022/11/16 06:06:08;;;;;;;1.60;0.75;;;11.30;97.20;;;;;;4941033;28;20051;-83
2022/11/16 06:08:40;;;;;;;1.65;1.00;;;11.30;97.20;;;;;;4975304;28;20057;-82
2022/11/16 06:11:13;;;;;;;1.67;0.80;;;11.30;97.20;;;;;;4945666;28;20070;-82
2022/11/16 06:13:44;;;;;;;3.25;1.67;;;11.30;97.20;;;;;;4958253;28;20050;-83
2022/11/16 06:16:24;;;;;;;3.25;1.50;;;11.40;97.20;;;;;;4943955;28;20131;-83
2022/11/16 06:19:02;;;;;;;3.00;2.10;;;11.40;97.10;;;;;;4925093;29;20071;-83
2022/11/16 06:21:35;;;;;;;3.58;2.00;;;11.40;97.10;;;;;;4940083;28;20145;-83
2022/11/16 06:25:48;;;;;;;2.47;1.52;;;11.40;97.10;;;;;;4921175;29;20067;-82
2022/11/16 06:28:29;;;;;;;2.45;1.40;;;11.30;97.20;;;;;;4939013;29;20072;-83
2022/11/16 06:31:01;;;;;;;;;;;11.20;97.20;;;;;;4951613;29;20055;-83
2022/11/16 06:33:39;;;;;;;1.80;0.70;;;11.10;97.30;;;;;;4915307;29;20019;-83
2022/11/16 06:36:33;;;;;;;2.28;0.90;;;11.00;97.30;;;;;;4919045;29;20043;-83
2022/11/16 06:39:00;;;;;;;1.48;0.75;;;11.00;97.30;;;;;;4919107;29;20110;-83
2022/11/16 06:41:34;;;;;;;1.80;0.80;;;10.90;97.40;;;;;;4918440;28;20508;-84
2022/11/16 06:44:10;;;;;;;2.22;1.08;;;10.80;97.40;;;;;;4918402;29;20044;-84
2022/11/16 06:46:50;;;;;;;1.58;0.70;;;10.80;97.50;;;;;;4919972;29;20437;-83
2022/11/16 06:49:20;;;;;;;1.63;0.70;;;10.70;97.50;;;;;;4902004;29;20566;-83
2022/11/16 06:51:51;;;;;;;1.35;0.70;;;10.60;97.50;;;;;;4947528;29;20070;-84
2022/11/16 06:54:19;;;;;;;1.50;0.73;;;10.60;97.60;;;;;;4900180;29;20060;-82
2022/11/16 06:56:48;;;;;;;1.20;0.50;;;10.50;97.60;;;;;;4911232;29;20079;-83
2022/11/16 06:59:21;;;;;;;1.35;0.70;;;10.40;97.60;;;;;;4936225;29;20059;-82
2022/11/16 07:01:53;;;;;;;1.90;0.57;;;10.40;97.70;;;;;;4933495;28;20108;-82
2022/11/16 07:04:22;;;;;;;1.73;0.60;;;10.30;97.70;;;;;;4993041;28;20142;-84
2022/11/16 07:06:57;;;;;;;0.98;0.47;;;10.30;97.80;;;;;;4968990;28;20530;-83
2022/11/16 07:09:30;;;;;;;1.52;0.52;;;10.20;97.80;;;;;;4935765;28;20393;-84
2022/11/16 07:11:57;;;;;;;1.45;0.40;;;10.10;97.80;;;;;;5003867;28;20089;-83
2022/11/16 07:14:35;;;;;;;2.50;0.40;;;10.10;97.90;;;;;;4961630;28;20054;-83
2022/11/16 07:17:14;;;;;;;1.70;0.60;;;10.00;97.90;;;;;;4969552;28;20046;-83
2022/11/16 07:19:54;;;;;;;1.05;0.60;;;10.00;97.90;;;;;;4962669;28;20061;-85
2022/11/16 07:22:24;;;;;;;1.52;0.47;;;9.90;97.90;;;;;;4969621;28;20046;-83
2022/11/16 07:24:57;;;;;;;1.42;0.52;;;9.90;97.90;;;;;;4962220;28;20062;-82
2022/11/16 07:27:29;;;;;;;1.73;0.50;;;9.90;97.90;;;;;;4969439;28;20046;-83
2022/11/16 07:30:01;;;;;;;0.77;0.30;;;9.90;97.90;;;;;;4970156;28;20273;-82
2022/11/16 07:32:58;;;;;;;1.15;0.40;;;9.80;97.90;;;;;;4986901;28;20141;-81
2022/11/16 07:35:45;;;;;;;1.30;0.45;;;9.80;97.90;;;;;;4993488;28;20423;-82
2022/11/16 07:38:13;;;;;;;1.30;0.55;;;9.80;98.00;;;;;;4976223;28;20039;-82
2022/11/16 07:40:48;;;;;;;1.02;0.40;;;9.80;98.00;;;;;;4980958;28;20050;-82
2022/11/16 07:43:17;;;;;;;1.08;0.30;;;9.80;98.00;;;;;;4980950;28;20046;-83
2022/11/16 07:46:38;;;;;;;1.13;0.40;;;9.70;98.00;;;;;;4955604;28;20042;-82
2022/11/16 07:49:19;;;;;;;0.32;0.30;;;9.70;98.00;;;;;;4975792;28;20129;-85
2022/11/16 07:52:09;;;;;;;1.42;0.40;;;9.70;98.30;;;;;;4963913;28;20134;-83
2022/11/16 07:54:56;;;;;;;0.50;0.20;;;9.80;98.10;;;;;;4986000;28;20387;-83
2022/11/16 07:57:26;;;;;;;1.23;0.30;;;9.90;98.00;;;;;;4991959;28;20889;-83
2022/11/16 08:00:11;;;;;;;1.13;0.50;;;10.00;97.90;;;;;;4973735;28;20406;-82
2022/11/16 08:02:54;;;;;;;1.75;0.40;;;10.00;97.80;;;;;;4994104;28;20137;-82
2022/11/16 08:05:41;;;;;;;0.65;0.32;;;10.10;97.80;;;;;;4967227;28;20481;-82
2022/11/16 08:08:16;;;;;;;0.75;0.40;;;10.10;97.70;;;;;;4980341;28;20047;-82
2022/11/16 08:10:49;;;;;;;1.15;0.45;;;10.00;97.70;;;;;;4973559;28;20077;-83
2022/11/16 08:13:16;;;;;;;0.85;0.40;;;10.00;97.70;;;;;;4953507;28;20046;-82
2022/11/16 08:15:46;;;;;;;1.58;0.60;;;10.00;97.70;;;;;;4948572;28;20101;-82
2022/11/16 08:18:16;;;;;;;1.75;0.43;;;10.00;97.80;;;;;;4992725;28;20054;-82
2022/11/16 08:20:59;;;;;;;1.85;0.80;;;10.00;97.80;;;;;;4955952;28;20490;-81
2022/11/16 08:23:28;;;;;;;1.92;0.60;;;10.00;97.80;;;;;;4996525;28;20390;-80
2022/11/16 08:26:54;;;;;;;1.55;0.60;;;10.00;97.80;;;;;;4982885;28;20066;-82
2022/11/16 08:30:13;;;;;;;2.10;0.70;;;10.00;97.70;;;;;;4975085;28;20466;-82
2022/11/16 08:32:45;;;;;;;2.58;0.95;;;10.00;97.80;;;;;;4947332;28;20065;-83
2022/11/16 08:35:14;;;;;;;2.72;0.85;;;10.00;97.70;;;;;;4970957;28;20039;-83
2022/11/16 08:38:04;;;;;;;1.63;0.60;;;10.00;97.70;;;;;;4976308;28;20101;-82
2022/11/16 08:40:40;;;;;;;1.92;0.77;;;10.00;97.70;;;;;;4946503;28;20121;-82
2022/11/16 08:43:14;;;;;;;1.33;0.70;;;10.10;97.70;;;;;;4944460;28;20074;-82
2022/11/16 08:45:48;;;;;;;1.73;0.60;;;10.20;97.70;;;;;;4944146;28;20039;-82
2022/11/16 08:48:24;;;;;;;2.42;1.00;;;10.20;97.80;;;;;;4959379;28;20298;-82
2022/11/16 08:51:02;;;;;;;3.95;1.20;;;10.30;97.60;;;;;;4952610;28;20456;-84
2022/11/16 08:58:02;;;;;;;3.33;1.38;;;10.40;97.50;;;;;;4976603;28;20571;-85
2022/11/16 09:00:42;;;;;;;2.25;1.00;;;10.50;97.40;;;;;;4959641;28;20047;-85
2022/11/16 09:06:49;;;;;;;2.97;0.85;;;10.70;97.30;;;;;;4948346;28;20047;-84
2022/11/16 09:09:30;;;;;;;2.40;0.88;;;10.80;97.20;;;;;;4959687;28;20101;-85
2022/11/16 09:11:57;;;;;;;5.07;1.52;;;10.80;97.20;;;;;;4940578;29;20555;-84
2022/11/16 09:14:34;;;;;;;6.25;1.60;;;10.80;97.10;;;;;;4955905;28;20538;-84
2022/11/16 09:17:38;;;;;;;6.28;1.63;;;10.70;97.10;;;;;;4950218;29;20511;-85
2022/11/16 09:20:06;;;;;;;7.43;1.75;;;10.70;97.20;;;;;;4950222;28;20101;-84
2022/11/16 09:22:54;;;;;;;3.90;1.25;;;10.70;97.20;;;;;;4943758;28;20090;-86
2022/11/16 09:25:29;;;;;;;2.38;1.40;;;10.70;97.10;;;;;;4945292;28;20094;-85
2022/11/16 09:28:11;;;;;;;2.88;0.88;;;10.60;97.20;;;;;;4945707;28;20527;-84
2022/11/16 09:31:16;;;;;;;3.80;1.13;;;10.60;97.20;;;;;;4980414;28;20054;-85
2022/11/16 09:34:19;;;;;;;5.07;1.10;;;10.60;97.20;;;;;;4977906;28;20049;-85
2022/11/16 09:37:30;;;;;;;3.85;1.23;;;10.70;97.20;;;;;;4965871;28;20491;-85
2022/11/16 09:41:53;;;;;;;4.60;1.27;;;10.60;97.20;;;;;;4970330;28;20046;-84
2022/11/16 09:45:15;;;;;;;5.10;1.65;;;10.70;97.10;;;;;;4972115;28;20047;-86
2022/11/16 09:48:01;;;;;;;1.92;0.80;;;10.60;97.00;;;;;;4922664;28;20057;-80
2022/11/16 09:54:20;;;;;;;4.28;0.88;;;10.60;97.00;;;;;;4994210;28;20503;-80
2022/11/16 09:56:55;;;;;;;3.42;1.08;;;10.60;97.00;;;;;;4990914;28;20054;-85
2022/11/16 10:08:27;;;;;;;3.13;1.05;;;10.60;96.90;;;;;;4958806;28;20148;-86
2022/11/16 10:11:21;;;;;;;4.75;1.52;;;10.60;96.90;;;;;;4927754;29;20388;-87
2022/11/16 10:14:00;;;;;;;3.95;1.00;;;10.60;96.80;;;;;;4938492;29;20070;-86
2022/11/16 10:16:51;;;;;;;3.72;0.70;;;10.60;96.80;;;;;;4923521;29;20039;-92
2022/11/16 10:19:39;;;;;;;2.97;0.77;;;10.60;96.80;;;;;;4939084;29;20138;-89
2022/11/16 10:22:31;;;;;;;1.30;0.50;;;10.60;96.80;;;;;;4952857;28;20051;-87
2022/11/16 10:25:15;;;;;;;2.78;0.68;;;10.60;96.80;;;;;;4948937;29;20409;-86
2022/11/16 10:27:58;;;;;;;2.15;0.80;;;10.60;96.80;;;;;;4923169;29;20075;-86
2022/11/16 10:30:26;;;;;;;2.38;0.38;;;10.60;96.80;;;;;;4934287;28;20050;-88
2022/11/16 10:32:59;;;;;;;2.55;0.40;;;10.60;96.80;;;;;;4980623;28;20546;-87
2022/11/16 10:35:32;;;;;;;2.53;0.50;;;10.70;96.80;;;;;;4952781;28;20061;-89
2022/11/16 10:38:02;;;;;;;2.05;0.60;;;10.70;96.80;;;;;;4958725;28;20464;-88
2022/11/16 10:41:08;;;;;;;3.95;0.75;;;10.70;96.70;;;;;;4974099;28;20480;-83
2022/11/16 10:43:59;;;;;;;2.60;0.50;;;10.80;96.70;;;;;;4954458;29;20105;-85
2022/11/16 10:46:43;;;;;;;3.30;0.80;;;10.80;96.70;;;;;;4988610;28;20093;-86
2022/11/16 10:49:33;;;;;;;3.08;0.60;;;10.90;96.60;;;;;;4966361;28;20077;-87
2022/11/16 10:57:07;;;;;;;3.95;0.90;;;11.10;96.30;;;;;;4963130;28;20077;-83
2022/11/16 10:59:46;;;;;;;2.13;0.40;;;11.30;96.20;;;;;;4969191;28;20042;-84
2022/11/16 11:02:49;;;;;;;2.70;0.73;;;11.40;96.10;;;;;;4971471;28;20062;-84
2022/11/16 11:05:20;;;;;;;1.00;0.40;;;11.50;96.00;;;;;;4924231;29;20166;-83
2022/11/16 11:08:04;;;;;;;2.45;0.40;;;11.40;96.00;;;;;;4973974;28;20054;-79
2022/11/16 11:10:34;;;;;;;5.13;1.23;;;11.40;95.90;;;;;;4986095;28;20077;-78
2022/11/16 11:13:10;;;;;;;4.00;0.50;;;11.40;96.00;;;;;;4978849;28;20050;-79
2022/11/16 11:15:39;;;;;;;1.48;0.90;;;11.30;96.00;;;;;;5008738;28;20483;-80
2022/11/16 11:18:23;;;;;;;2.00;0.82;;;11.40;96.00;;;;;;4972024;28;20118;-78
2022/11/16 11:21:18;;;;;;;2.22;0.60;;;11.40;96.20;;;;;;4985210;28;20533;-78
2022/11/16 11:23:51;;;;;;;4.03;0.73;;;11.40;95.80;;;;;;4967772;28;20452;-78
2022/11/16 11:26:36;;;;;;;4.03;0.82;;;11.40;95.70;;;;;;4956847;28;20134;-78
2022/11/16 11:29:23;;;;;;;2.67;0.70;;;11.50;95.90;;;;;;4983146;28;20073;-77
2022/11/16 11:32:06;;;;;;;2.55;0.70;;;11.40;95.70;;;;;;4988049;28;20082;-78
2022/11/16 11:34:46;;;;;;;;;;;11.30;95.80;;;;;;4979220;28;20074;-79
2022/11/16 11:37:26;;;;;;;3.00;0.60;;;11.20;95.90;;;;;;4956978;28;19965;-78
2022/11/16 11:40:04;;;;;;;3.00;0.68;;;11.20;95.90;;;;;;4956351;28;20043;-78
2022/11/16 11:42:31;;;;;;;2.08;0.60;;;11.20;95.90;;;;;;4967252;28;20418;-78
2022/11/16 11:45:05;;;;;;;0.82;0.52;;;11.10;95.90;;;;;;4967387;28;20572;-78
2022/11/16 11:47:44;;;;;;;3.22;0.90;;;11.10;96.00;;;;;;4956801;28;20491;-78
2022/11/16 11:50:46;;;;;;;3.40;0.65;;;11.10;96.00;;;;;;4956004;28;20043;-78
2022/11/16 11:53:50;;;;;;;1.52;0.50;;;11.10;95.90;;;;;;4956823;28;20047;-78
2022/11/16 11:56:21;;;;;;;3.85;0.60;;;11.10;95.90;;;;;;4954968;29;20051;-78
2022/11/16 11:58:51;;;;;;;8.35;1.55;;;11.10;95.90;;;;;;4966704;28;20043;-78
2022/11/16 12:01:54;;;;;;;2.15;0.63;;;11.10;96.10;;;;;;4972124;28;20561;-78
2022/11/16 12:04:40;;;;;;;2.75;0.63;;;11.20;95.80;;;;;;4953872;28;20074;-79
2022/11/16 12:07:23;;;;;;;2.97;0.70;;;11.20;95.60;;;;;;4964590;28;20061;-77
2022/11/16 12:10:03;;;;;;;2.47;0.50;;;11.20;95.60;;;;;;4987738;28;20057;-84
2022/11/16 12:12:54;;;;;;;3.95;0.80;;;11.30;95.60;;;;;;4940312;28;20053;-81
2022/11/16 12:16:09;;;;;;;2.63;0.50;;;11.30;95.50;;;;;;4969236;28;20492;-81
2022/11/16 12:19:07;;;;;;;2.50;0.60;;;11.30;95.50;;;;;;4961303;28;20050;-82
2022/11/16 12:22:12;;;;;;;1.95;0.40;;;11.30;95.50;;;;;;4940574;28;20482;-80
2022/11/16 12:24:57;;;;;;;2.28;0.77;;;11.40;95.50;;;;;;4945621;28;20567;-82
2022/11/16 12:27:57;;;;;;;3.35;0.70;;;11.50;95.40;;;;;;4956485;28;20495;-82
2022/11/16 12:30:25;;;;;;;4.18;0.50;;;11.70;95.20;;;;;;4946872;28;20085;-82
2022/11/16 12:33:27;;;;;;;1.50;0.40;;;11.90;94.90;;;;;;4959794;28;20077;-82
2022/11/16 12:36:03;;;;;;;1.88;0.40;;;12.00;94.70;;;;;;4984162;28;20042;-81
2022/11/16 12:39:11;;;;;;;2.63;0.47;;;11.90;94.70;;;;;;4959568;28;20089;-81
2022/11/16 12:41:47;;;;;;;1.60;0.30;;;12.10;94.60;;;;;;4947525;28;20403;-80
2022/11/16 12:44:34;;;;;;;2.95;0.55;;;12.20;94.60;;;;;;4963127;28;20406;-78
2022/11/16 12:47:17;;;;;;;2.53;0.57;;;12.30;94.50;;;;;;4978840;28;20096;-79
2022/11/16 12:50:06;;;;;;;1.33;0.40;;;12.40;94.40;;;;;;4979107;28;20038;-79
2022/11/16 12:52:39;;;;;;;3.00;0.38;;;12.40;94.10;;;;;;4984141;28;20585;-82
2022/11/16 12:55:16;;;;;;;1.75;0.40;;;12.40;94.20;;;;;;4979198;28;20116;-82
2022/11/16 12:58:19;;;;;;;2.28;0.50;;;12.40;94.20;;;;;;4980469;28;20133;-82
2022/11/16 13:00:52;;;;;;;2.28;0.40;;;12.30;94.30;;;;;;4966845;28;20817;-83
2022/11/16 13:15:18;;;;;;;1.13;0.30;;;11.90;94.50;;;;;;4996040;28;20129;-86
2022/11/16 13:17:58;;;;;;;0.80;0.20;;;11.80;94.50;;;;;;4958077;28;20388;-83
2022/11/16 13:20:59;;;;;;;0.93;0.30;;;11.80;94.50;;;;;;4963626;28;20042;-84
2022/11/16 13:23:27;;;;;;;2.60;0.50;;;11.80;94.50;;;;;;4969860;28;20050;-81
2022/11/16 13:26:01;;;;;;;0.73;0.47;;;11.70;94.60;;;;;;4978329;28;20134;-82
2022/11/16 13:29:06;;;;;;;0.50;0.20;;;11.70;94.60;;;;;;4978801;28;20038;-86
2022/11/16 13:31:57;;;;;;;2.67;0.30;;;11.70;94.60;;;;;;4977492;28;20145;-83
2022/11/16 13:34:34;;;;;;;0.30;0.10;;;11.70;94.60;;;;;;4979731;28;20042;-87
2022/11/16 13:37:37;;;;;;;0.93;0.40;;;11.70;94.60;;;;;;4964744;28;20069;-85
2022/11/16 13:40:04;;;;;;;2.50;0.35;;;11.70;94.50;;;;;;4991346;28;20042;-81
2022/11/16 13:42:44;;;;;;;1.48;0.30;;;11.60;94.60;;;;;;4978200;28;20042;-84
2022/11/16 13:45:21;;;;;;;0.32;0.10;;;11.60;94.60;;;;;;4979986;28;20049;-88
2022/11/16 13:47:56;;;;;;;1.67;0.20;;;11.50;94.60;;;;;;4956796;28;20047;-89
2022/11/16 13:50:37;;;;;;;1.95;0.30;;;11.50;94.70;;;;;;4961329;28;20093;-91
2022/11/16 13:53:20;;;;;;;1.52;0.20;;;11.40;94.70;;;;;;4975082;28;20050;-84
2022/11/16 14:00:01;;;;;;;1.35;0.20;;;11.40;94.70;;;;;;4965942;28;20095;-84
2022/11/16 14:02:42;;;;;;;0.98;0.10;;;11.30;94.80;;;;;;4978002;28;20050;-84
2022/11/16 14:05:37;;;;;;;0.40;0.10;;;11.20;94.80;;;;;;4969121;28;20081;-84
2022/11/16 14:08:19;;;;;;;0.65;0.15;;;11.20;94.70;;;;;;4995197;28;20125;-85
2022/11/16 14:10:53;;;;;;;1.00;0.10;;;11.30;94.80;;;;;;4962863;28;20054;-83
2022/11/16 14:13:38;;;;;;;0.88;0.13;;;11.30;94.70;;;;;;4977515;28;20096;-82
2022/11/16 14:16:21;;;;;;;2.25;0.30;;;11.40;94.50;;;;;;4972999;28;20053;-82
2022/11/16 14:18:51;;;;;;;1.23;0.13;;;11.50;94.50;;;;;;4961316;28;20054;-82
2022/11/16 14:22:10;;;;;;;1.92;0.30;;;11.40;94.50;;;;;;4977290;28;20534;-82
2022/11/16 14:25:00;;;;;;;0.73;0.30;;;11.50;94.50;;;;;;4915486;29;20067;-81
2022/11/16 14:27:34;;;;;;;0.10;0.10;;;11.60;94.50;;;;;;4915643;29;20533;-83
2022/11/16 14:30:23;;;;;;;1.25;0.20;;;11.60;94.40;;;;;;4963876;28;20104;-81
2022/11/16 14:32:52;;;;;;;1.25;0.10;;;11.60;94.40;;;;;;4948167;28;20046;-81
2022/11/16 14:35:36;;;;;;;0.10;0.10;;;11.50;94.50;;;;;;4941031;29;20039;-81
2022/11/16 14:38:21;;;;;;;2.03;0.30;;;11.60;94.50;;;;;;4968416;28;20043;-81
2022/11/16 14:40:51;;;;;;;0.45;0.10;;;11.60;94.50;;;;;;4957440;28;20137;-81
2022/11/16 14:43:42;;;;;;;0.63;0.20;;;11.60;94.50;;;;;;4927708;28;20069;-82
2022/11/16 14:46:19;;;;;;;0.95;0.10;;;11.60;94.40;;;;;;4949127;28;20443;-82
2022/11/16 14:48:47;;;;;;;1.48;0.30;;;11.70;94.40;;;;;;4958962;28;20046;-84
2022/11/16 14:51:18;;;;;;;2.35;0.75;;;11.70;94.40;;;;;;4955622;28;20146;-83
2022/11/16 14:53:49;;;;;;;0.40;0.10;;;11.70;94.30;;;;;;4974146;28;20105;-83
2022/11/16 14:56:26;;;;;;;1.42;0.20;;;11.70;94.30;;;;;;4962496;28;20495;-81
2022/11/16 14:58:58;;;;;;;2.00;0.20;;;11.70;94.30;;;;;;4941771;28;20408;-85
2022/11/16 15:01:32;;;;;;;0.98;0.20;;;11.60;94.30;;;;;;4954680;28;20130;-80
2022/11/16 15:04:07;;;;;;;0.60;0.17;;;11.50;94.40;;;;;;4940713;28;20067;-79
2022/11/16 15:07:02;;;;;;;0.47;0.10;;;11.40;94.50;;;;;;4945898;28;20047;-79
2022/11/16 15:09:39;;;;;;;0.60;0.20;;;11.40;94.60;;;;;;4943674;28;20514;-80
2022/11/16 15:15:19;;;;;;;3.10;0.20;;;11.40;94.60;;;;;;4960720;28;20487;-80
2022/11/16 15:18:06;;;;;;;2.17;0.13;;;11.40;94.50;;;;;;4970565;28;20514;-81
2022/11/16 15:20:48;;;;;;;3.20;0.17;;;11.40;94.50;;;;;;4958140;28;20234;-81
2022/11/16 15:23:15;;;;;;;0.70;0.20;;;11.50;94.50;;;;;;4971722;28;20492;-80
2022/11/16 15:25:54;;;;;;;2.67;0.10;;;11.40;94.50;;;;;;4941339;28;20046;-82
2022/11/16 15:28:24;;;;;;;1.67;0.17;;;11.40;94.50;;;;;;4957238;28;20090;-82